createdAt,value
2018-03-06T00:02:27.676Z,20.27
2018-03-06T00:04:55.775Z,20.02
2018-03-06T00:07:23.988Z,21.33
2018-03-06T00:09:52.156Z,20.88
2018-03-06T00:12:20.455Z,20.02
2018-03-06T00:14:48.599Z,18.50
2018-03-06T00:17:21.046Z,19.25
2018-03-06T00:19:49.134Z,19.10
2018-03-06T00:22:17.334Z,18.80
2018-03-06T00:24:45.521Z,18.70
2018-03-06T00:27:13.601Z,20.15
2018-03-06T00:29:41.916Z,19.30
2018-03-06T00:32:10.202Z,20.17
2018-03-06T00:34:38.447Z,19.40
2018-03-06T00:37:06.686Z,19.52
2018-03-06T00:39:35.095Z,19.70
2018-03-06T00:42:03.496Z,18.48
2018-03-06T00:44:31.796Z,19.60
2018-03-06T00:47:00.095Z,22.20
2018-03-06T00:49:28.666Z,20.70
2018-03-06T00:51:56.773Z,19.33
2018-03-06T00:54:25.184Z,19.02
2018-03-06T00:56:53.484Z,20.92
2018-03-06T00:59:21.781Z,21.48
2018-03-06T01:01:49.967Z,20.15
2018-03-06T01:04:18.274Z,20.50
2018-03-06T01:06:46.362Z,19.75
2018-03-06T01:09:14.554Z,20.02
2018-03-06T01:11:42.855Z,21.17
2018-03-06T01:14:11.157Z,21.98
2018-03-06T01:16:39.435Z,19.65
2018-03-06T01:19:07.839Z,18.75
2018-03-06T01:21:36.242Z,19.52
2018-03-06T01:24:04.634Z,18.73
2018-03-06T01:26:32.723Z,19.75
2018-03-06T01:29:01.039Z,18.42
2018-03-06T01:31:29.220Z,18.30
2018-03-06T01:33:57.514Z,19.05
2018-03-06T01:36:25.524Z,18.48
2018-03-06T01:38:53.855Z,19.50
2018-03-06T01:41:21.995Z,18.27
2018-03-06T01:43:50.195Z,18.40
2018-03-06T01:46:18.397Z,17.60
2018-03-06T01:48:46.677Z,18.05
2018-03-06T01:51:14.884Z,17.10
2018-03-06T01:53:43.080Z,17.62
2018-03-06T01:56:11.271Z,18.05
2018-03-06T01:58:39.468Z,17.80
2018-03-06T02:01:07.860Z,16.73
2018-03-06T02:03:36.160Z,18.70
2018-03-06T02:06:04.458Z,17.87
2018-03-06T02:08:32.759Z,19.10
2018-03-06T02:11:00.984Z,20.17
2018-03-06T02:13:29.138Z,18.37
2018-03-06T02:15:57.358Z,18.52
2018-03-06T02:18:25.737Z,19.23
2018-03-06T02:20:54.020Z,20.10
2018-03-06T02:23:22.217Z,21.90
2018-03-06T02:25:50.419Z,20.15
2018-03-06T02:28:18.613Z,20.33
2018-03-06T02:30:46.918Z,20.00
2018-03-06T02:33:15.202Z,20.17
2018-03-06T02:35:43.507Z,21.23
2018-03-06T02:38:11.895Z,19.05
2018-03-06T02:40:40.196Z,19.92
2018-03-06T02:43:08.497Z,18.92
2018-03-06T02:45:36.957Z,19.58
2018-03-06T02:48:05.291Z,18.62
2018-03-06T02:50:33.597Z,19.35
2018-03-06T02:53:01.680Z,18.85
2018-03-06T02:55:29.985Z,17.90
2018-03-06T02:57:58.074Z,19.50
2018-03-06T03:00:26.358Z,18.60
2018-03-06T03:02:54.453Z,17.67
2018-03-06T03:05:22.648Z,20.62
2018-03-06T03:07:50.847Z,19.87
2018-03-06T03:10:19.050Z,19.45
2018-03-06T03:12:47.127Z,20.77
2018-03-06T03:15:15.324Z,21.20
2018-03-06T03:17:43.723Z,19.15
2018-03-06T03:20:12.221Z,19.37
2018-03-06T03:22:40.604Z,20.27
2018-03-06T03:25:09.036Z,21.92
2018-03-06T03:27:37.318Z,19.75
2018-03-06T03:30:05.626Z,19.35
2018-03-06T03:32:33.654Z,20.75
2018-03-06T03:35:01.964Z,22.27
2018-03-06T03:37:30.316Z,21.85
2018-03-06T03:39:58.510Z,20.10
2018-03-06T03:42:26.708Z,20.75
2018-03-06T03:44:54.986Z,19.65
2018-03-06T03:47:23.328Z,20.80
2018-03-06T03:49:51.722Z,20.62
2018-03-06T03:52:19.974Z,18.98
2018-03-06T03:54:48.167Z,18.80
2018-03-06T03:57:16.502Z,19.80
2018-03-06T03:59:44.766Z,18.70
2018-03-06T04:02:13.062Z,20.42
2018-03-06T04:04:41.467Z,18.55
2018-03-06T04:07:09.596Z,18.67
2018-03-06T04:09:38.057Z,18.95
2018-03-06T04:12:06.380Z,20.35
2018-03-06T04:14:34.686Z,18.65
2018-03-06T04:17:02.854Z,18.85
2018-03-06T04:19:31.143Z,21.17
2018-03-06T04:21:59.343Z,19.20
2018-03-06T04:24:27.536Z,18.58
2018-03-06T04:26:55.646Z,19.30
2018-03-06T04:29:24.116Z,18.70
2018-03-06T04:31:52.336Z,17.33
2018-03-06T04:34:20.518Z,17.50
2018-03-06T04:36:48.716Z,19.08
2018-03-06T04:39:16.996Z,16.25
2018-03-06T04:41:45.304Z,19.50
2018-03-06T04:44:13.802Z,19.35
2018-03-06T04:46:42.098Z,17.80
2018-03-06T04:49:10.420Z,17.33
2018-03-06T04:51:38.788Z,18.27
2018-03-06T04:54:06.996Z,18.02
2018-03-06T04:56:35.959Z,17.90
2018-03-06T04:59:04.245Z,20.05
2018-03-06T05:01:32.618Z,19.90
2018-03-06T05:04:00.909Z,18.62
2018-03-06T05:06:29.220Z,19.70
2018-03-06T05:08:57.357Z,20.08
2018-03-06T05:11:25.474Z,19.00
2018-03-06T05:13:53.568Z,18.35
2018-03-06T05:16:21.859Z,18.62
2018-03-06T05:18:50.175Z,19.10
2018-03-06T05:21:18.566Z,18.55
2018-03-06T05:23:46.806Z,18.77
2018-03-06T05:26:15.265Z,18.20
2018-03-06T05:28:44.681Z,18.58
2018-03-06T05:31:12.920Z,20.25
2018-03-06T05:33:41.276Z,19.35
2018-03-06T05:36:09.556Z,19.55
2018-03-06T05:38:37.871Z,18.50
2018-03-06T05:41:06.161Z,19.20
2018-03-06T05:43:34.456Z,21.00
2018-03-06T05:46:02.866Z,19.52
2018-03-06T05:48:31.026Z,18.73
2018-03-06T05:50:59.162Z,20.05
2018-03-06T05:53:27.339Z,20.50
2018-03-06T05:55:55.670Z,18.70
2018-03-06T05:58:23.722Z,21.65
2018-03-06T06:00:51.921Z,20.88
2018-03-06T06:03:20.326Z,19.85
2018-03-06T06:05:48.525Z,21.27
2018-03-06T06:08:16.816Z,21.70
2018-03-06T06:10:45.214Z,19.58
2018-03-06T06:13:13.335Z,19.92
2018-03-06T06:15:41.705Z,21.00
2018-03-06T06:18:09.891Z,20.33
2018-03-06T06:20:38.095Z,19.87
2018-03-06T06:23:06.188Z,21.67
2018-03-06T06:25:34.475Z,19.73
2018-03-06T06:28:02.578Z,20.98
2018-03-06T06:30:30.779Z,20.80
2018-03-06T06:32:58.865Z,21.73
2018-03-06T06:35:27.060Z,22.25
2018-03-06T06:37:55.243Z,23.10
2018-03-06T06:40:23.438Z,21.30
2018-03-06T06:42:51.629Z,20.17
2018-03-06T06:45:20.023Z,19.98
2018-03-06T06:47:48.329Z,19.80
2018-03-06T06:50:16.632Z,19.95
2018-03-06T06:52:44.937Z,19.33
2018-03-06T06:55:13.116Z,20.88
2018-03-06T06:57:41.211Z,18.70
2018-03-06T07:00:09.290Z,19.02
2018-03-06T07:02:37.394Z,18.85
2018-03-06T07:05:05.497Z,20.70
2018-03-06T07:07:33.535Z,20.55
2018-03-06T07:10:01.568Z,18.15
2018-03-06T07:12:30.380Z,21.40
2018-03-06T07:14:58.574Z,21.95
2018-03-06T07:17:26.757Z,22.80
2018-03-06T07:19:54.855Z,22.50
2018-03-06T07:22:23.150Z,23.77
2018-03-06T07:24:52.104Z,23.65
2018-03-06T07:27:20.356Z,23.52
2018-03-06T07:29:48.554Z,21.80
2018-03-06T07:32:16.956Z,21.83
2018-03-06T07:34:45.358Z,24.48
2018-03-06T07:37:13.596Z,22.92
2018-03-06T07:39:41.760Z,21.67
2018-03-06T07:42:09.892Z,23.52
2018-03-06T07:44:38.138Z,21.58
2018-03-06T07:47:06.327Z,25.37
2018-03-06T07:49:34.373Z,22.42
2018-03-06T07:52:02.844Z,17.65
2018-03-06T07:54:30.946Z,20.37
2018-03-06T07:56:59.056Z,20.37
2018-03-06T07:59:27.184Z,20.17
2018-03-06T08:01:55.285Z,20.50
2018-03-06T08:04:23.477Z,18.90
2018-03-06T08:06:51.775Z,17.35
2018-03-06T08:09:20.084Z,18.08
2018-03-06T08:11:48.376Z,17.65
2018-03-06T08:14:16.665Z,18.52
2018-03-06T08:16:44.962Z,19.73
2018-03-06T08:19:13.020Z,18.30
2018-03-06T08:21:41.253Z,20.88
2018-03-06T08:24:09.340Z,19.37
2018-03-06T08:26:37.544Z,19.62
2018-03-06T08:29:05.733Z,18.92
2018-03-06T08:31:33.925Z,17.95
2018-03-06T08:34:02.140Z,18.80
2018-03-06T08:36:30.420Z,19.08
2018-03-06T08:38:58.712Z,19.80
2018-03-06T08:41:26.837Z,19.42
2018-03-06T08:43:55.215Z,15.27
2018-03-06T08:46:23.607Z,17.85
2018-03-06T08:48:51.918Z,18.75
2018-03-06T08:51:20.199Z,17.37
2018-03-06T08:53:48.601Z,19.55
2018-03-06T08:56:17.716Z,18.15
2018-03-06T08:58:46.070Z,19.48
2018-03-06T09:01:14.618Z,18.30
2018-03-06T09:03:42.708Z,16.73
2018-03-06T09:06:10.908Z,18.65
2018-03-06T09:08:38.985Z,18.48
2018-03-06T09:11:07.184Z,17.37
2018-03-06T09:13:35.317Z,16.75
2018-03-06T09:16:03.677Z,18.83
2018-03-06T09:18:31.860Z,17.87
2018-03-06T09:21:00.176Z,18.12
2018-03-06T09:23:28.666Z,19.45
2018-03-06T09:25:57.441Z,17.58
2018-03-06T09:28:25.865Z,17.98
2018-03-06T09:30:54.286Z,16.87
2018-03-06T09:33:22.570Z,16.25
2018-03-06T09:35:50.979Z,17.40
2018-03-06T09:38:19.214Z,18.25
2018-03-06T09:40:47.576Z,19.45
2018-03-06T09:43:15.855Z,19.80
2018-03-06T09:45:44.163Z,19.02
2018-03-06T09:48:12.316Z,18.10
2018-03-06T09:50:40.536Z,18.17
2018-03-06T09:53:08.659Z,17.67
2018-03-06T09:55:36.935Z,20.50
2018-03-06T09:58:05.116Z,18.80
2018-03-06T10:00:33.224Z,17.80
2018-03-06T10:03:01.410Z,19.95
2018-03-06T10:05:29.611Z,19.00
2018-03-06T10:07:57.896Z,18.42
2018-03-06T10:10:26.202Z,19.08
2018-03-06T10:12:54.547Z,17.90
2018-03-06T10:15:22.901Z,18.50
2018-03-06T10:17:51.092Z,18.83
2018-03-06T10:20:19.165Z,18.98
2018-03-06T10:22:47.704Z,18.10
2018-03-06T10:25:16.081Z,17.65
2018-03-06T10:27:44.267Z,15.95
2018-03-06T10:30:12.522Z,17.23
2018-03-06T10:32:40.768Z,18.05
2018-03-06T10:35:08.872Z,17.90
2018-03-06T10:37:37.113Z,16.87
2018-03-06T10:40:05.353Z,16.62
2018-03-06T10:42:33.544Z,16.87
2018-03-06T10:45:01.754Z,19.25
2018-03-06T10:47:29.837Z,17.02
2018-03-06T10:49:58.135Z,18.90
2018-03-06T10:52:26.430Z,17.80
2018-03-06T10:54:54.722Z,20.25
2018-03-06T10:57:23.124Z,19.75
2018-03-06T10:59:51.323Z,17.75
2018-03-06T11:02:19.318Z,16.67
2018-03-06T11:04:47.501Z,16.48
2018-03-06T11:07:15.701Z,16.67
2018-03-06T11:09:43.776Z,18.05
2018-03-06T11:12:11.981Z,19.00
2018-03-06T11:14:40.173Z,17.75
2018-03-06T11:17:08.477Z,16.85
2018-03-06T11:19:36.757Z,18.70
2018-03-06T11:22:04.968Z,18.37
2018-03-06T11:24:33.056Z,18.27
2018-03-06T11:27:01.443Z,18.92
2018-03-06T11:29:29.758Z,18.80
2018-03-06T11:31:58.055Z,16.98
2018-03-06T11:34:26.343Z,17.33
2018-03-06T11:36:54.635Z,18.25
2018-03-06T11:39:22.778Z,18.20
2018-03-06T11:41:51.883Z,18.27
2018-03-06T11:44:20.045Z,17.33
2018-03-06T11:46:48.235Z,17.83
2018-03-06T11:49:16.426Z,17.05
2018-03-06T11:51:44.683Z,17.35
2018-03-06T11:54:12.918Z,17.45
2018-03-06T11:56:41.122Z,19.12
2018-03-06T11:59:09.309Z,16.90
2018-03-06T12:01:37.396Z,17.40
2018-03-06T12:04:05.596Z,19.23
2018-03-06T12:06:33.684Z,18.23
2018-03-06T12:09:01.986Z,18.10
2018-03-06T12:11:30.281Z,18.40
2018-03-06T12:13:58.569Z,17.15
2018-03-06T12:16:26.678Z,16.42
2018-03-06T12:18:54.962Z,17.62
2018-03-06T12:21:23.266Z,18.87
2018-03-06T12:23:51.551Z,17.40
2018-03-06T12:26:19.574Z,18.08
2018-03-06T12:28:47.747Z,17.60
2018-03-06T12:31:15.838Z,17.58
2018-03-06T12:33:44.023Z,18.65
2018-03-06T12:36:12.130Z,18.20
2018-03-06T12:38:40.323Z,17.08
2018-03-06T12:41:08.512Z,17.95
2018-03-06T12:43:36.798Z,16.45
2018-03-06T12:46:04.889Z,18.50
2018-03-06T12:48:33.202Z,16.95
2018-03-06T12:51:01.486Z,16.27
2018-03-06T12:53:29.898Z,17.42
2018-03-06T12:55:58.075Z,17.50
2018-03-06T12:58:26.375Z,17.85
2018-03-06T13:00:54.480Z,16.65
2018-03-06T13:03:23.790Z,18.27
2018-03-06T13:05:51.809Z,19.48
2018-03-06T13:08:19.970Z,17.50
2018-03-06T13:10:48.070Z,17.17
2018-03-06T13:13:16.054Z,18.25
2018-03-06T13:15:44.050Z,18.62
2018-03-06T13:18:12.154Z,18.27
2018-03-06T13:20:40.233Z,18.42
2018-03-06T13:23:08.323Z,18.50
2018-03-06T13:25:36.424Z,18.05
2018-03-06T13:28:04.563Z,19.37
2018-03-06T13:30:32.702Z,19.00
2018-03-06T13:33:00.895Z,18.05
2018-03-06T13:35:28.997Z,20.05
2018-03-06T13:37:57.282Z,19.48
2018-03-06T13:40:25.358Z,19.10
2018-03-06T13:42:53.578Z,19.20
2018-03-06T13:45:21.775Z,18.83
2018-03-06T13:47:49.969Z,17.85
2018-03-06T13:50:18.167Z,19.45
2018-03-06T13:52:46.197Z,18.67
2018-03-06T13:55:14.455Z,17.83
2018-03-06T13:57:42.659Z,18.27
2018-03-06T14:00:10.927Z,17.98
2018-03-06T14:02:39.026Z,18.27
2018-03-06T14:05:07.335Z,18.35
2018-03-06T14:07:35.649Z,16.87
2018-03-06T14:10:03.908Z,16.70
2018-03-06T14:12:32.005Z,17.60
2018-03-06T14:15:00.315Z,18.55
2018-03-06T14:17:28.596Z,16.80
2018-03-06T14:19:56.794Z,17.75
2018-03-06T14:22:25.156Z,16.67
2018-03-06T14:24:53.494Z,18.87
2018-03-06T14:27:21.697Z,17.40
2018-03-06T14:29:49.775Z,19.20
2018-03-06T14:32:18.307Z,17.80
2018-03-06T14:34:46.474Z,17.42
2018-03-06T14:37:14.570Z,19.70
2018-03-06T14:39:42.763Z,20.42
2018-03-06T14:42:10.849Z,18.98
2018-03-06T14:44:39.059Z,21.55
2018-03-06T14:47:07.352Z,20.08
2018-03-06T14:49:35.745Z,16.98
2018-03-06T14:52:03.867Z,18.90
2018-03-06T14:54:32.236Z,18.80
2018-03-06T14:57:00.426Z,19.25
2018-03-06T14:59:28.783Z,19.40
2018-03-06T15:01:57.138Z,20.88
2018-03-06T15:04:25.255Z,20.98
2018-03-06T15:06:53.518Z,21.87
2018-03-06T15:09:21.708Z,22.35
2018-03-06T15:11:49.896Z,20.88
2018-03-06T15:14:18.100Z,21.08
2018-03-06T15:16:47.011Z,23.20
2018-03-06T15:19:15.206Z,23.00
2018-03-06T15:21:43.299Z,22.83
2018-03-06T15:24:11.506Z,21.62
2018-03-06T15:26:39.585Z,21.10
2018-03-06T15:29:07.881Z,22.42
2018-03-06T15:31:36.178Z,20.52
2018-03-06T15:34:04.484Z,22.50
2018-03-06T15:36:32.657Z,23.05
2018-03-06T15:39:00.950Z,23.70
2018-03-06T15:41:29.282Z,23.80
2018-03-06T15:43:58.361Z,21.40
2018-03-06T15:46:26.462Z,23.00
2018-03-06T15:48:54.667Z,22.40
2018-03-06T15:51:22.700Z,22.25
2018-03-06T15:53:50.850Z,20.60
2018-03-06T15:56:18.936Z,23.00
2018-03-06T15:58:47.030Z,24.45
2018-03-06T16:01:15.111Z,23.35
2018-03-06T16:03:43.347Z,22.02
2018-03-06T16:06:11.510Z,22.40
2018-03-06T16:08:39.778Z,23.75
2018-03-06T16:11:07.883Z,22.75
2018-03-06T16:13:36.187Z,24.05
2018-03-06T16:16:04.756Z,25.45
2018-03-06T16:18:33.099Z,24.05
2018-03-06T16:21:01.496Z,25.42
2018-03-06T16:23:30.617Z,25.75
2018-03-06T16:25:59.004Z,26.52
2018-03-06T16:28:27.438Z,27.77
2018-03-06T16:30:55.821Z,27.65
2018-03-06T16:33:23.892Z,26.40
2018-03-06T16:35:52.058Z,26.80
2018-03-06T16:38:20.385Z,27.70
2018-03-06T16:40:48.577Z,28.55
2018-03-06T16:43:16.674Z,28.38
2018-03-06T16:45:44.872Z,26.15
2018-03-06T16:48:12.972Z,28.38
2018-03-06T16:50:41.151Z,30.90
2018-03-06T16:53:09.603Z,31.35
2018-03-06T16:55:37.925Z,31.30
2018-03-06T16:58:06.142Z,26.60
2018-03-06T17:00:34.556Z,25.40
2018-03-06T17:03:02.764Z,25.37
2018-03-06T17:05:30.939Z,26.15
2018-03-06T17:07:59.025Z,26.12
2018-03-06T17:10:27.212Z,27.20
2018-03-06T17:12:55.246Z,27.15
2018-03-06T17:15:23.515Z,27.80
2018-03-06T17:17:51.561Z,28.00
2018-03-06T17:20:19.700Z,25.50
2018-03-06T17:22:47.977Z,27.50
2018-03-06T17:25:16.177Z,28.15
2018-03-06T17:27:44.276Z,26.48
2018-03-06T17:30:12.465Z,28.38
2018-03-06T17:32:40.665Z,28.12
2018-03-06T17:35:08.963Z,30.25
2018-03-06T17:37:37.054Z,27.52
2018-03-06T17:40:05.346Z,26.80
2018-03-06T17:42:33.640Z,28.02
2018-03-06T17:45:01.975Z,27.10
2018-03-06T17:47:30.337Z,27.02
2018-03-06T17:49:58.526Z,26.90
2018-03-06T17:52:26.745Z,26.37
2018-03-06T17:54:54.926Z,34.53
2018-03-06T17:57:23.119Z,30.20
2018-03-06T17:59:51.239Z,28.02
2018-03-06T18:02:19.267Z,29.15
2018-03-06T18:04:47.608Z,30.02
2018-03-06T18:07:15.702Z,25.92
2018-03-06T18:09:43.882Z,27.62
2018-03-06T18:12:12.175Z,44.60
2018-03-06T18:14:40.379Z,38.60
2018-03-06T18:17:08.678Z,32.08
2018-03-06T18:19:39.213Z,37.78
2018-03-06T18:22:07.513Z,33.75
2018-03-06T18:24:35.614Z,29.85
2018-03-06T18:27:03.714Z,33.80
2018-03-06T18:29:31.789Z,31.40
2018-03-06T18:32:00.088Z,28.87
2018-03-06T18:34:28.189Z,30.88
2018-03-06T18:36:56.288Z,30.45
2018-03-06T18:39:25.389Z,32.72
2018-03-06T18:41:53.787Z,31.02
2018-03-06T18:44:22.088Z,30.08
2018-03-06T18:46:50.314Z,30.27
2018-03-06T18:49:18.698Z,35.20
2018-03-06T18:51:46.868Z,34.55
2018-03-06T18:54:14.955Z,33.70
2018-03-06T18:56:43.054Z,34.42
2018-03-06T18:59:11.095Z,34.00
2018-03-06T19:01:39.254Z,37.20
2018-03-06T19:04:07.434Z,35.33
2018-03-06T19:06:35.635Z,34.95
2018-03-06T19:09:03.714Z,32.45
2018-03-06T19:11:31.697Z,31.52
2018-03-06T19:13:59.696Z,33.65
2018-03-06T19:16:27.994Z,29.73
2018-03-06T19:18:56.498Z,28.42
2018-03-06T19:21:24.795Z,27.55
2018-03-06T19:23:52.994Z,31.08
2018-03-06T19:26:21.294Z,31.95
2018-03-06T19:28:49.376Z,31.15
2018-03-06T19:31:17.475Z,29.40
2018-03-06T19:33:45.449Z,28.98
2018-03-06T19:36:13.856Z,31.60
2018-03-06T19:38:41.956Z,29.92
2018-03-06T19:41:10.035Z,30.30
2018-03-06T19:43:38.590Z,31.75
2018-03-06T19:46:09.334Z,31.15
2018-03-06T19:48:37.996Z,33.47
2018-03-06T19:51:06.195Z,31.05
2018-03-06T19:53:34.395Z,32.42
2018-03-06T19:56:06.935Z,33.20
2018-03-06T19:58:41.041Z,30.45
2018-03-06T20:01:10.335Z,32.38
2018-03-06T20:03:39.034Z,32.75
2018-03-06T20:06:07.114Z,34.05
2018-03-06T20:08:35.155Z,35.08
2018-03-06T20:11:03.403Z,34.72
2018-03-06T20:13:31.594Z,32.03
2018-03-06T20:16:00.511Z,32.80
2018-03-06T20:18:28.816Z,31.17
2018-03-06T20:20:56.915Z,32.80
2018-03-06T20:23:27.542Z,31.00
2018-03-06T20:25:57.989Z,33.05
2018-03-06T20:28:27.654Z,31.95
2018-03-06T20:30:57.150Z,33.22
2018-03-06T20:33:29.336Z,30.92
2018-03-06T20:35:59.278Z,31.25
2018-03-06T20:38:28.270Z,31.00
2018-03-06T20:40:57.069Z,31.25
2018-03-06T20:43:25.474Z,32.60
2018-03-06T20:45:53.675Z,31.20
2018-03-06T20:48:21.870Z,31.73
2018-03-06T20:50:49.975Z,29.20
2018-03-06T20:53:18.614Z,31.40
2018-03-06T20:55:47.074Z,28.52
2018-03-06T20:58:15.355Z,28.30
2018-03-06T21:00:43.655Z,29.87
2018-03-06T21:03:11.755Z,33.92
2018-03-06T21:05:39.854Z,31.70
2018-03-06T21:08:08.236Z,32.83
2018-03-06T21:10:36.258Z,31.15
2018-03-06T21:13:04.383Z,33.88
2018-03-06T21:15:32.516Z,79.82
2018-03-06T21:18:00.615Z,64.32
2018-03-06T21:20:28.755Z,47.72
2018-03-06T21:22:57.096Z,36.95
2018-03-06T21:25:25.195Z,34.83
2018-03-06T21:27:53.295Z,33.75
2018-03-06T21:30:21.695Z,37.95
2018-03-06T21:32:50.096Z,44.25
2018-03-06T21:35:18.187Z,38.85
2018-03-06T21:37:46.480Z,33.40
2018-03-06T21:40:14.564Z,30.88
2018-03-06T21:42:42.660Z,30.58
2018-03-06T21:45:10.844Z,30.40
2018-03-06T21:47:39.045Z,30.27
2018-03-06T21:50:07.345Z,28.62
2018-03-06T21:52:35.539Z,28.35
2018-03-06T21:55:03.549Z,32.30
2018-03-06T21:57:31.839Z,28.00
2018-03-06T22:00:00.068Z,30.80
2018-03-06T22:02:28.218Z,32.67
2018-03-06T22:04:56.604Z,31.25
2018-03-06T22:07:25.835Z,30.50
2018-03-06T22:09:53.912Z,29.52
2018-03-06T22:12:22.002Z,33.53
2018-03-06T22:14:50.115Z,31.62
2018-03-06T22:17:18.902Z,32.58
2018-03-06T22:19:47.310Z,31.60
2018-03-06T22:22:15.502Z,29.50
2018-03-06T22:24:43.507Z,32.80
2018-03-06T22:27:11.691Z,28.23
2018-03-06T22:29:40.292Z,27.92
2018-03-06T22:32:08.596Z,29.45
2018-03-06T22:34:36.783Z,29.40
2018-03-06T22:37:04.985Z,31.45
2018-03-06T22:39:33.084Z,27.55
2018-03-06T22:42:02.396Z,29.02
2018-03-06T22:44:30.593Z,26.48
2018-03-06T22:46:58.583Z,27.50
2018-03-06T22:49:26.678Z,28.12
2018-03-06T22:51:54.874Z,25.67
2018-03-06T22:54:22.954Z,26.35
2018-03-06T22:56:51.240Z,28.12
2018-03-06T22:59:19.351Z,26.73
2018-03-06T23:01:47.440Z,29.27
2018-03-06T23:04:15.729Z,29.67
2018-03-06T23:06:43.820Z,32.45
2018-03-06T23:09:11.921Z,32.50
2018-03-06T23:11:40.109Z,35.60
2018-03-06T23:14:08.417Z,41.80
2018-03-06T23:16:36.536Z,39.40
2018-03-06T23:19:04.427Z,35.03
2018-03-06T23:21:32.691Z,34.67
2018-03-06T23:24:00.877Z,33.65
2018-03-06T23:26:29.094Z,36.08
2018-03-06T23:28:57.376Z,34.13
2018-03-06T23:31:25.664Z,35.22
2018-03-06T23:33:53.865Z,34.10
2018-03-06T23:36:22.158Z,35.08
2018-03-06T23:38:50.354Z,34.63
2018-03-06T23:41:18.447Z,35.67
2018-03-06T23:43:46.739Z,36.22
2018-03-06T23:46:15.042Z,39.95
2018-03-06T23:48:43.435Z,35.97
2018-03-06T23:51:11.729Z,38.60
2018-03-06T23:53:40.031Z,38.90
2018-03-06T23:56:08.329Z,40.83
2018-03-06T23:58:36.473Z,39.38
